sensor_id;sensor_type;location;lat;lon;timestamp;pressure;altitude;pressure_sealevel;temperature;humidity
74334;BME280;62753;40.394;-80.022;2023-06-26T00:02:07;96488.21;;;34.99;27.43
74334;BME280;62753;40.394;-80.022;2023-06-26T00:04:32;96489.77;;;34.28;27.76
74334;BME280;62753;40.394;-80.022;2023-06-26T00:07:02;96487.37;;;34.05;27.71
74334;BME280;62753;40.394;-80.022;2023-06-26T00:09:22;96475.85;;;34.00;27.71
74334;BME280;62753;40.394;-80.022;2023-06-26T00:11:48;96469.49;;;33.86;28.06
74334;BME280;62753;40.394;-80.022;2023-06-26T00:14:14;96468.46;;;34.33;27.88
74334;BME280;62753;40.394;-80.022;2023-06-26T00:16:39;96466.72;;;34.70;28.00
74334;BME280;62753;40.394;-80.022;2023-06-26T00:19:05;96457.86;;;34.73;27.41
74334;BME280;62753;40.394;-80.022;2023-06-26T00:21:30;96458.31;;;34.67;27.21
74334;BME280;62753;40.394;-80.022;2023-06-26T00:23:56;96465.98;;;34.82;26.62
74334;BME280;62753;40.394;-80.022;2023-06-26T00:26:22;96465.73;;;34.15;27.46
74334;BME280;62753;40.394;-80.022;2023-06-26T00:28:47;96458.78;;;34.67;27.34
74334;BME280;62753;40.394;-80.022;2023-06-26T00:31:13;96453.24;;;35.43;26.25
74334;BME280;62753;40.394;-80.022;2023-06-26T00:33:38;96456.24;;;34.54;27.25
74334;BME280;62753;40.394;-80.022;2023-06-26T00:36:03;96455.91;;;34.20;27.60
74334;BME280;62753;40.394;-80.022;2023-06-26T00:38:27;96463.49;;;33.94;27.63
74334;BME280;62753;40.394;-80.022;2023-06-26T00:40:53;96466.60;;;34.03;27.86
74334;BME280;62753;40.394;-80.022;2023-06-26T00:43:19;96469.47;;;34.83;26.75
74334;BME280;62753;40.394;-80.022;2023-06-26T00:45:44;96470.14;;;34.14;28.18
74334;BME280;62753;40.394;-80.022;2023-06-26T00:48:09;96473.01;;;33.81;28.15
74334;BME280;62753;40.394;-80.022;2023-06-26T00:50:34;96474.54;;;34.35;27.75
74334;BME280;62753;40.394;-80.022;2023-06-26T00:52:59;96480.35;;;34.30;27.82
74334;BME280;62753;40.394;-80.022;2023-06-26T00:55:24;96486.69;;;34.06;27.93
74334;BME280;62753;40.394;-80.022;2023-06-26T00:57:49;96486.96;;;34.44;27.94
74334;BME280;62753;40.394;-80.022;2023-06-26T01:00:15;96479.82;;;34.10;27.91
74334;BME280;62753;40.394;-80.022;2023-06-26T01:02:40;96476.50;;;34.32;27.60
74334;BME280;62753;40.394;-80.022;2023-06-26T01:05:06;96468.45;;;33.65;28.32
74334;BME280;62753;40.394;-80.022;2023-06-26T01:07:31;96460.58;;;33.80;28.65
74334;BME280;62753;40.394;-80.022;2023-06-26T01:09:56;96460.07;;;33.05;29.35
74334;BME280;62753;40.394;-80.022;2023-06-26T01:12:22;96462.04;;;33.12;30.05
74334;BME280;62753;40.394;-80.022;2023-06-26T01:14:47;96467.76;;;32.68;30.79
74334;BME280;62753;40.394;-80.022;2023-06-26T01:17:12;96458.31;;;32.44;30.61
74334;BME280;62753;40.394;-80.022;2023-06-26T01:19:38;96459.39;;;32.52;31.19
74334;BME280;62753;40.394;-80.022;2023-06-26T01:22:12;96468.34;;;32.89;30.41
74334;BME280;62753;40.394;-80.022;2023-06-26T01:24:33;96472.78;;;32.55;30.66
74334;BME280;62753;40.394;-80.022;2023-06-26T01:26:55;96477.46;;;33.19;30.42
74334;BME280;62753;40.394;-80.022;2023-06-26T01:29:20;96486.50;;;33.80;29.78
74334;BME280;62753;40.394;-80.022;2023-06-26T01:31:45;96487.17;;;32.69;30.90
74334;BME280;62753;40.394;-80.022;2023-06-26T01:34:10;96488.36;;;32.69;31.42
74334;BME280;62753;40.394;-80.022;2023-06-26T01:36:36;96487.55;;;32.22;31.78
74334;BME280;62753;40.394;-80.022;2023-06-26T01:39:02;96483.47;;;32.07;32.57
74334;BME280;62753;40.394;-80.022;2023-06-26T01:41:27;96488.49;;;32.19;32.21
74334;BME280;62753;40.394;-80.022;2023-06-26T01:44:01;96490.48;;;32.03;32.46
74334;BME280;62753;40.394;-80.022;2023-06-26T01:46:21;96491.24;;;32.54;31.94
74334;BME280;62753;40.394;-80.022;2023-06-26T01:48:50;96480.08;;;31.72;33.03
74334;BME280;62753;40.394;-80.022;2023-06-26T01:51:10;96478.40;;;31.00;34.49
74334;BME280;62753;40.394;-80.022;2023-06-26T01:53:40;96484.84;;;31.16;34.28
74334;BME280;62753;40.394;-80.022;2023-06-26T01:56:06;96485.36;;;30.96;34.29
74334;BME280;62753;40.394;-80.022;2023-06-26T01:58:26;96481.06;;;30.72;35.02
74334;BME280;62753;40.394;-80.022;2023-06-26T02:00:52;96476.37;;;30.64;35.36
74334;BME280;62753;40.394;-80.022;2023-06-26T02:03:18;96475.98;;;30.81;34.93
74334;BME280;62753;40.394;-80.022;2023-06-26T02:05:42;96473.23;;;31.26;34.27
74334;BME280;62753;40.394;-80.022;2023-06-26T02:08:09;96474.69;;;31.65;33.60
74334;BME280;62753;40.394;-80.022;2023-06-26T02:10:33;96483.79;;;31.78;32.87
74334;BME280;62753;40.394;-80.022;2023-06-26T02:12:58;96496.57;;;32.05;32.40
74334;BME280;62753;40.394;-80.022;2023-06-26T02:15:24;96514.65;;;31.97;32.30
74334;BME280;62753;40.394;-80.022;2023-06-26T02:17:49;96523.52;;;31.85;32.49
74334;BME280;62753;40.394;-80.022;2023-06-26T02:20:14;96521.82;;;32.09;32.24
74334;BME280;62753;40.394;-80.022;2023-06-26T02:22:39;96517.76;;;32.28;31.49
74334;BME280;62753;40.394;-80.022;2023-06-26T02:25:06;96513.36;;;32.52;31.78
74334;BME280;62753;40.394;-80.022;2023-06-26T02:27:30;96516.85;;;32.07;31.82
74334;BME280;62753;40.394;-80.022;2023-06-26T02:29:56;96513.36;;;32.61;31.90
74334;BME280;62753;40.394;-80.022;2023-06-26T02:32:22;96507.41;;;32.26;31.95
74334;BME280;62753;40.394;-80.022;2023-06-26T02:34:47;96514.52;;;32.30;31.84
74334;BME280;62753;40.394;-80.022;2023-06-26T02:37:12;96517.71;;;32.16;31.95
74334;BME280;62753;40.394;-80.022;2023-06-26T02:39:37;96518.51;;;32.64;31.60
74334;BME280;62753;40.394;-80.022;2023-06-26T02:42:03;96506.95;;;32.79;31.67
74334;BME280;62753;40.394;-80.022;2023-06-26T02:44:28;96488.64;;;31.80;33.45
74334;BME280;62753;40.394;-80.022;2023-06-26T02:46:53;96475.97;;;31.02;34.44
74334;BME280;62753;40.394;-80.022;2023-06-26T02:49:19;96469.50;;;29.95;36.90
74334;BME280;62753;40.394;-80.022;2023-06-26T02:51:44;96475.95;;;30.65;36.46
74334;BME280;62753;40.394;-80.022;2023-06-26T02:54:09;96472.41;;;30.61;35.65
74334;BME280;62753;40.394;-80.022;2023-06-26T02:56:36;96465.33;;;30.80;35.65
74334;BME280;62753;40.394;-80.022;2023-06-26T02:59:00;96470.86;;;30.70;36.22
74334;BME280;62753;40.394;-80.022;2023-06-26T03:01:25;96476.60;;;30.69;35.12
74334;BME280;62753;40.394;-80.022;2023-06-26T03:03:51;96466.77;;;31.45;34.25
74334;BME280;62753;40.394;-80.022;2023-06-26T03:06:18;96454.43;;;30.59;35.64
74334;BME280;62753;40.394;-80.022;2023-06-26T03:08:43;96442.77;;;29.66;37.68
74334;BME280;62753;40.394;-80.022;2023-06-26T03:11:10;96431.04;;;28.31;40.53
74334;BME280;62753;40.394;-80.022;2023-06-26T03:13:35;96417.25;;;28.19;40.98
74334;BME280;62753;40.394;-80.022;2023-06-26T03:15:59;96410.54;;;28.27;41.47
74334;BME280;62753;40.394;-80.022;2023-06-26T03:18:24;96418.37;;;28.65;40.90
74334;BME280;62753;40.394;-80.022;2023-06-26T03:20:50;96416.08;;;28.71;40.16
74334;BME280;62753;40.394;-80.022;2023-06-26T03:23:16;96423.03;;;28.75;39.69
74334;BME280;62753;40.394;-80.022;2023-06-26T03:25:41;96426.20;;;28.59;39.59
74334;BME280;62753;40.394;-80.022;2023-06-26T03:28:07;96430.51;;;29.09;39.11
74334;BME280;62753;40.394;-80.022;2023-06-26T03:30:32;96426.82;;;28.70;39.12
74334;BME280;62753;40.394;-80.022;2023-06-26T03:32:57;96415.59;;;28.86;39.19
74334;BME280;62753;40.394;-80.022;2023-06-26T03:35:23;96415.11;;;28.54;39.92
74334;BME280;62753;40.394;-80.022;2023-06-26T03:37:48;96419.47;;;29.25;39.15
74334;BME280;62753;40.394;-80.022;2023-06-26T03:40:12;96435.10;;;30.04;37.23
74334;BME280;62753;40.394;-80.022;2023-06-26T03:42:38;96441.09;;;30.92;35.90
74334;BME280;62753;40.394;-80.022;2023-06-26T03:45:04;96443.30;;;30.70;35.43
74334;BME280;62753;40.394;-80.022;2023-06-26T03:47:29;96443.39;;;31.25;34.83
74334;BME280;62753;40.394;-80.022;2023-06-26T03:49:54;96446.82;;;31.13;34.21
74334;BME280;62753;40.394;-80.022;2023-06-26T03:52:20;96444.94;;;31.18;34.17
74334;BME280;62753;40.394;-80.022;2023-06-26T03:54:45;96440.47;;;31.14;34.16
74334;BME280;62753;40.394;-80.022;2023-06-26T03:57:10;96436.21;;;31.53;33.79
74334;BME280;62753;40.394;-80.022;2023-06-26T03:59:37;96433.75;;;31.32;33.70
74334;BME280;62753;40.394;-80.022;2023-06-26T04:02:01;96432.10;;;31.59;33.15
74334;BME280;62753;40.394;-80.022;2023-06-26T04:04:27;96425.68;;;32.00;32.81
74334;BME280;62753;40.394;-80.022;2023-06-26T04:06:52;96422.86;;;31.74;33.08
74334;BME280;62753;40.394;-80.022;2023-06-26T04:09:17;96417.22;;;31.28;33.98
74334;BME280;62753;40.394;-80.022;2023-06-26T04:11:43;96415.53;;;31.14;34.08
74334;BME280;62753;40.394;-80.022;2023-06-26T04:14:08;96416.28;;;31.03;34.24
74334;BME280;62753;40.394;-80.022;2023-06-26T04:16:33;96423.68;;;31.53;33.75
74334;BME280;62753;40.394;-80.022;2023-06-26T04:18:59;96426.86;;;31.56;33.72
74334;BME280;62753;40.394;-80.022;2023-06-26T04:21:24;96409.19;;;31.31;33.58
74334;BME280;62753;40.394;-80.022;2023-06-26T04:23:50;96403.47;;;30.95;33.81
74334;BME280;62753;40.394;-80.022;2023-06-26T04:26:15;96410.21;;;31.18;33.76
74334;BME280;62753;40.394;-80.022;2023-06-26T04:28:40;96409.20;;;31.07;33.37
74334;BME280;62753;40.394;-80.022;2023-06-26T04:31:06;96405.22;;;31.30;33.25
74334;BME280;62753;40.394;-80.022;2023-06-26T04:33:32;96393.60;;;31.71;33.05
74334;BME280;62753;40.394;-80.022;2023-06-26T04:35:57;96390.47;;;31.54;32.61
74334;BME280;62753;40.394;-80.022;2023-06-26T04:38:22;96395.21;;;31.58;32.49
74334;BME280;62753;40.394;-80.022;2023-06-26T04:40:48;96400.94;;;31.77;32.60
74334;BME280;62753;40.394;-80.022;2023-06-26T04:43:13;96399.02;;;31.69;32.59
74334;BME280;62753;40.394;-80.022;2023-06-26T04:45:39;96398.59;;;31.41;32.65
74334;BME280;62753;40.394;-80.022;2023-06-26T04:48:04;96396.73;;;31.48;32.70
74334;BME280;62753;40.394;-80.022;2023-06-26T04:50:31;96397.31;;;31.23;33.00
74334;BME280;62753;40.394;-80.022;2023-06-26T04:52:55;96395.08;;;31.40;32.67
74334;BME280;62753;40.394;-80.022;2023-06-26T04:55:21;96392.27;;;31.34;32.73
74334;BME280;62753;40.394;-80.022;2023-06-26T04:57:46;96394.65;;;31.51;32.80
74334;BME280;62753;40.394;-80.022;2023-06-26T05:00:13;96389.32;;;31.09;33.25
74334;BME280;62753;40.394;-80.022;2023-06-26T05:02:37;96384.40;;;31.33;33.01
74334;BME280;62753;40.394;-80.022;2023-06-26T05:05:02;96378.85;;;31.36;32.72
74334;BME280;62753;40.394;-80.022;2023-06-26T05:07:27;96374.17;;;31.50;32.55
74334;BME280;62753;40.394;-80.022;2023-06-26T05:09:52;96361.61;;;30.51;34.68
74334;BME280;62753;40.394;-80.022;2023-06-26T05:12:18;96360.23;;;29.31;36.57
74334;BME280;62753;40.394;-80.022;2023-06-26T05:14:44;96355.86;;;29.80;36.44
74334;BME280;62753;40.394;-80.022;2023-06-26T05:17:09;96342.31;;;30.16;36.34
74334;BME280;62753;40.394;-80.022;2023-06-26T05:19:35;96336.17;;;29.21;37.77
74334;BME280;62753;40.394;-80.022;2023-06-26T05:22:01;96327.48;;;29.12;38.11
74334;BME280;62753;40.394;-80.022;2023-06-26T05:24:26;96321.15;;;28.97;38.74
74334;BME280;62753;40.394;-80.022;2023-06-26T05:26:52;96322.69;;;29.53;37.88
74334;BME280;62753;40.394;-80.022;2023-06-26T05:29:17;96308.75;;;29.37;37.55
74334;BME280;62753;40.394;-80.022;2023-06-26T05:31:43;96294.73;;;28.96;38.95
74334;BME280;62753;40.394;-80.022;2023-06-26T05:34:08;96285.98;;;28.47;39.48
74334;BME280;62753;40.394;-80.022;2023-06-26T05:36:34;96289.86;;;28.72;38.94
74334;BME280;62753;40.394;-80.022;2023-06-26T05:38:58;96295.79;;;29.15;37.91
74334;BME280;62753;40.394;-80.022;2023-06-26T05:41:24;96288.33;;;29.61;38.02
74334;BME280;62753;40.394;-80.022;2023-06-26T05:43:48;96282.86;;;29.11;37.92
74334;BME280;62753;40.394;-80.022;2023-06-26T05:46:14;96287.80;;;30.07;36.94
74334;BME280;62753;40.394;-80.022;2023-06-26T05:48:39;96289.55;;;29.95;37.00
74334;BME280;62753;40.394;-80.022;2023-06-26T05:51:06;96290.11;;;29.32;37.21
74334;BME280;62753;40.394;-80.022;2023-06-26T05:53:31;96290.10;;;29.35;37.37
74334;BME280;62753;40.394;-80.022;2023-06-26T05:55:57;96292.94;;;30.09;36.45
74334;BME280;62753;40.394;-80.022;2023-06-26T05:58:24;96291.03;;;30.50;35.63
74334;BME280;62753;40.394;-80.022;2023-06-26T06:00:48;96283.65;;;30.69;35.39
74334;BME280;62753;40.394;-80.022;2023-06-26T06:03:13;96284.99;;;30.42;35.69
74334;BME280;62753;40.394;-80.022;2023-06-26T06:05:39;96285.99;;;29.90;36.00
74334;BME280;62753;40.394;-80.022;2023-06-26T06:08:04;96286.80;;;29.73;36.55
74334;BME280;62753;40.394;-80.022;2023-06-26T06:10:29;96282.91;;;29.77;36.45
74334;BME280;62753;40.394;-80.022;2023-06-26T06:12:55;96278.20;;;29.91;36.83
74334;BME280;62753;40.394;-80.022;2023-06-26T06:15:20;96274.10;;;29.23;37.34
74334;BME280;62753;40.394;-80.022;2023-06-26T06:17:45;96280.50;;;28.79;38.48
74334;BME280;62753;40.394;-80.022;2023-06-26T06:20:11;96285.46;;;28.17;39.98
74334;BME280;62753;40.394;-80.022;2023-06-26T06:22:37;96277.76;;;28.27;40.40
74334;BME280;62753;40.394;-80.022;2023-06-26T06:25:02;96282.08;;;27.87;41.22
74334;BME280;62753;40.394;-80.022;2023-06-26T06:27:28;96293.86;;;27.68;42.37
74334;BME280;62753;40.394;-80.022;2023-06-26T06:29:53;96296.60;;;27.60;41.28
74334;BME280;62753;40.394;-80.022;2023-06-26T06:32:19;96291.54;;;27.92;41.31
74334;BME280;62753;40.394;-80.022;2023-06-26T06:34:44;96281.68;;;28.27;40.87
74334;BME280;62753;40.394;-80.022;2023-06-26T06:37:09;96287.75;;;27.80;41.06
74334;BME280;62753;40.394;-80.022;2023-06-26T06:39:35;96284.80;;;28.46;39.69
74334;BME280;62753;40.394;-80.022;2023-06-26T06:42:00;96286.37;;;28.14;40.32
74334;BME280;62753;40.394;-80.022;2023-06-26T06:44:27;96287.24;;;28.44;40.40
74334;BME280;62753;40.394;-80.022;2023-06-26T06:46:52;96285.13;;;28.59;39.98
74334;BME280;62753;40.394;-80.022;2023-06-26T06:49:18;96279.50;;;28.05;40.18
74334;BME280;62753;40.394;-80.022;2023-06-26T06:51:43;96279.21;;;28.18;40.11
74334;BME280;62753;40.394;-80.022;2023-06-26T06:54:09;96273.14;;;28.12;40.27
74334;BME280;62753;40.394;-80.022;2023-06-26T06:56:34;96275.66;;;28.46;39.67
74334;BME280;62753;40.394;-80.022;2023-06-26T06:59:00;96279.41;;;28.82;39.21
74334;BME280;62753;40.394;-80.022;2023-06-26T07:01:25;96276.30;;;29.12;38.37
74334;BME280;62753;40.394;-80.022;2023-06-26T07:03:51;96279.18;;;29.19;38.12
74334;BME280;62753;40.394;-80.022;2023-06-26T07:06:17;96279.44;;;29.45;37.02
74334;BME280;62753;40.394;-80.022;2023-06-26T07:08:42;96281.41;;;29.67;36.89
74334;BME280;62753;40.394;-80.022;2023-06-26T07:11:07;96275.67;;;29.67;36.68
74334;BME280;62753;40.394;-80.022;2023-06-26T07:13:33;96274.50;;;29.52;36.81
74334;BME280;62753;40.394;-80.022;2023-06-26T07:15:58;96267.23;;;28.86;37.65
74334;BME280;62753;40.394;-80.022;2023-06-26T07:18:23;96269.11;;;28.60;38.48
74334;BME280;62753;40.394;-80.022;2023-06-26T07:20:49;96274.74;;;28.78;37.87
74334;BME280;62753;40.394;-80.022;2023-06-26T07:23:14;96278.88;;;29.05;37.62
74334;BME280;62753;40.394;-80.022;2023-06-26T07:25:39;96282.22;;;29.61;36.93
74334;BME280;62753;40.394;-80.022;2023-06-26T07:28:10;96284.36;;;28.77;38.75
74334;BME280;62753;40.394;-80.022;2023-06-26T07:30:30;96284.41;;;29.02;37.71
74334;BME280;62753;40.394;-80.022;2023-06-26T07:32:56;96282.56;;;28.82;38.01
74334;BME280;62753;40.394;-80.022;2023-06-26T07:35:21;96282.67;;;29.17;37.21
74334;BME280;62753;40.394;-80.022;2023-06-26T07:37:47;96281.73;;;29.46;36.83
74334;BME280;62753;40.394;-80.022;2023-06-26T07:40:12;96276.92;;;29.61;36.80
74334;BME280;62753;40.394;-80.022;2023-06-26T07:42:38;96267.82;;;29.32;37.52
74334;BME280;62753;40.394;-80.022;2023-06-26T07:45:04;96265.55;;;28.78;38.01
74334;BME280;62753;40.394;-80.022;2023-06-26T07:47:29;96260.52;;;28.53;39.14
74334;BME280;62753;40.394;-80.022;2023-06-26T07:49:54;96255.94;;;28.46;38.65
74334;BME280;62753;40.394;-80.022;2023-06-26T07:52:20;96261.55;;;28.98;38.09
74334;BME280;62753;40.394;-80.022;2023-06-26T07:54:46;96262.75;;;29.24;37.86
74334;BME280;62753;40.394;-80.022;2023-06-26T07:57:11;96265.24;;;28.43;39.14
74334;BME280;62753;40.394;-80.022;2023-06-26T07:59:36;96265.03;;;29.00;38.55
74334;BME280;62753;40.394;-80.022;2023-06-26T08:02:02;96264.34;;;28.77;38.20
74334;BME280;62753;40.394;-80.022;2023-06-26T08:04:28;96262.29;;;28.61;38.06
74334;BME280;62753;40.394;-80.022;2023-06-26T08:06:53;96264.63;;;28.67;38.75
74334;BME280;62753;40.394;-80.022;2023-06-26T08:09:19;96262.57;;;27.87;40.03
74334;BME280;62753;40.394;-80.022;2023-06-26T08:11:42;96264.59;;;27.76;41.50
74334;BME280;62753;40.394;-80.022;2023-06-26T08:14:08;96254.24;;;28.18;40.71
74334;BME280;62753;40.394;-80.022;2023-06-26T08:16:33;96254.33;;;28.00;39.98
74334;BME280;62753;40.394;-80.022;2023-06-26T08:18:59;96251.44;;;28.30;39.23
74334;BME280;62753;40.394;-80.022;2023-06-26T08:21:24;96250.89;;;28.64;39.03
74334;BME280;62753;40.394;-80.022;2023-06-26T08:23:49;96251.57;;;27.76;40.43
74334;BME280;62753;40.394;-80.022;2023-06-26T08:26:15;96251.49;;;28.10;39.61
74334;BME280;62753;40.394;-80.022;2023-06-26T08:28:40;96254.37;;;28.70;38.97
74334;BME280;62753;40.394;-80.022;2023-06-26T08:31:06;96252.47;;;28.33;38.86
74334;BME280;62753;40.394;-80.022;2023-06-26T08:33:31;96254.43;;;28.72;38.01
74334;BME280;62753;40.394;-80.022;2023-06-26T08:35:57;96253.00;;;28.40;39.13
74334;BME280;62753;40.394;-80.022;2023-06-26T08:38:23;96250.56;;;28.62;39.11
74334;BME280;62753;40.394;-80.022;2023-06-26T08:40:48;96250.02;;;28.66;38.98
74334;BME280;62753;40.394;-80.022;2023-06-26T08:43:14;96251.93;;;28.23;38.96
74334;BME280;62753;40.394;-80.022;2023-06-26T08:45:39;96250.39;;;28.54;39.01
74334;BME280;62753;40.394;-80.022;2023-06-26T08:48:07;96253.47;;;28.76;38.81
74334;BME280;62753;40.394;-80.022;2023-06-26T08:50:31;96249.09;;;28.52;38.71
74334;BME280;62753;40.394;-80.022;2023-06-26T08:52:59;96250.84;;;28.48;38.42
74334;BME280;62753;40.394;-80.022;2023-06-26T08:55:21;96248.64;;;28.63;38.36
74334;BME280;62753;40.394;-80.022;2023-06-26T08:57:47;96245.25;;;28.19;39.24
74334;BME280;62753;40.394;-80.022;2023-06-26T09:00:13;96246.26;;;28.48;38.89
74334;BME280;62753;40.394;-80.022;2023-06-26T09:02:37;96249.10;;;28.42;38.66
74334;BME280;62753;40.394;-80.022;2023-06-26T09:05:03;96250.09;;;28.29;38.71
74334;BME280;62753;40.394;-80.022;2023-06-26T09:07:28;96254.11;;;28.97;38.64
74334;BME280;62753;40.394;-80.022;2023-06-26T09:09:54;96249.37;;;28.50;38.44
74334;BME280;62753;40.394;-80.022;2023-06-26T09:12:20;96249.78;;;28.36;39.43
74334;BME280;62753;40.394;-80.022;2023-06-26T09:14:44;96253.26;;;28.14;39.91
74334;BME280;62753;40.394;-80.022;2023-06-26T09:17:09;96254.86;;;27.73;40.42
74334;BME280;62753;40.394;-80.022;2023-06-26T09:19:37;96256.06;;;28.13;39.52
74334;BME280;62753;40.394;-80.022;2023-06-26T09:22:00;96256.71;;;28.16;40.24
74334;BME280;62753;40.394;-80.022;2023-06-26T09:24:25;96260.94;;;28.19;40.22
74334;BME280;62753;40.394;-80.022;2023-06-26T09:26:51;96260.01;;;28.71;38.80
74334;BME280;62753;40.394;-80.022;2023-06-26T09:29:15;96257.63;;;28.69;38.76
74334;BME280;62753;40.394;-80.022;2023-06-26T09:31:41;96256.57;;;28.74;38.16
74334;BME280;62753;40.394;-80.022;2023-06-26T09:34:07;96260.10;;;28.73;38.28
74334;BME280;62753;40.394;-80.022;2023-06-26T09:36:33;96263.16;;;28.28;39.21
74334;BME280;62753;40.394;-80.022;2023-06-26T09:38:57;96260.35;;;28.21;39.77
74334;BME280;62753;40.394;-80.022;2023-06-26T09:41:23;96262.19;;;29.06;38.26
74334;BME280;62753;40.394;-80.022;2023-06-26T09:43:48;96259.51;;;28.69;38.33
74334;BME280;62753;40.394;-80.022;2023-06-26T09:46:16;96258.06;;;28.30;38.84
74334;BME280;62753;40.394;-80.022;2023-06-26T09:48:39;96256.59;;;28.53;38.27
74334;BME280;62753;40.394;-80.022;2023-06-26T09:51:05;96255.92;;;28.09;39.24
74334;BME280;62753;40.394;-80.022;2023-06-26T09:53:31;96259.51;;;28.13;39.51
74334;BME280;62753;40.394;-80.022;2023-06-26T09:55:56;96260.76;;;28.46;39.31
74334;BME280;62753;40.394;-80.022;2023-06-26T09:58:23;96257.94;;;27.89;39.98
74334;BME280;62753;40.394;-80.022;2023-06-26T10:00:47;96262.10;;;28.45;39.29
74334;BME280;62753;40.394;-80.022;2023-06-26T10:03:13;96260.24;;;28.72;39.35
74334;BME280;62753;40.394;-80.022;2023-06-26T10:05:39;96256.29;;;28.34;39.12
74334;BME280;62753;40.394;-80.022;2023-06-26T10:08:05;96260.50;;;28.15;39.34
74334;BME280;62753;40.394;-80.022;2023-06-26T10:10:29;96262.93;;;28.47;38.66
74334;BME280;62753;40.394;-80.022;2023-06-26T10:12:59;96265.54;;;28.42;39.64
74334;BME280;62753;40.394;-80.022;2023-06-26T10:15:21;96263.87;;;27.98;39.78
74334;BME280;62753;40.394;-80.022;2023-06-26T10:17:46;96264.30;;;28.55;38.80
74334;BME280;62753;40.394;-80.022;2023-06-26T10:20:10;96263.29;;;28.54;38.57
74334;BME280;62753;40.394;-80.022;2023-06-26T10:22:41;96262.02;;;27.93;39.49
74334;BME280;62753;40.394;-80.022;2023-06-26T10:25:01;96260.17;;;28.22;39.79
74334;BME280;62753;40.394;-80.022;2023-06-26T10:27:29;96264.44;;;27.57;40.60
74334;BME280;62753;40.394;-80.022;2023-06-26T10:29:53;96267.96;;;27.20;41.04
74334;BME280;62753;40.394;-80.022;2023-06-26T10:32:17;96267.48;;;27.85;39.90
74334;BME280;62753;40.394;-80.022;2023-06-26T10:34:41;96269.22;;;27.19;41.03
74334;BME280;62753;40.394;-80.022;2023-06-26T10:37:07;96267.20;;;27.31;40.65
74334;BME280;62753;40.394;-80.022;2023-06-26T10:42:08;96275.18;;;26.71;42.41
74334;BME280;62753;40.394;-80.022;2023-06-26T10:44:24;96277.13;;;27.06;42.29
74334;BME280;62753;40.394;-80.022;2023-06-26T10:46:51;96271.08;;;27.25;41.76
74334;BME280;62753;40.394;-80.022;2023-06-26T10:49:15;96271.01;;;27.32;40.82
74334;BME280;62753;40.394;-80.022;2023-06-26T10:51:46;96275.68;;;26.89;42.01
74334;BME280;62753;40.394;-80.022;2023-06-26T10:54:06;96272.96;;;26.62;43.25
74334;BME280;62753;40.394;-80.022;2023-06-26T10:56:41;96274.33;;;27.33;41.73
74334;BME280;62753;40.394;-80.022;2023-06-26T11:01:23;96279.99;;;27.46;41.09
74334;BME280;62753;40.394;-80.022;2023-06-26T11:03:49;96288.40;;;26.98;41.83
74334;BME280;62753;40.394;-80.022;2023-06-26T11:06:13;96289.07;;;27.28;41.03
74334;BME280;62753;40.394;-80.022;2023-06-26T11:08:47;96290.18;;;27.69;40.57
74334;BME280;62753;40.394;-80.022;2023-06-26T11:11:03;96292.06;;;27.15;41.88
74334;BME280;62753;40.394;-80.022;2023-06-26T11:13:30;96296.57;;;26.90;42.81
74334;BME280;62753;40.394;-80.022;2023-06-26T11:15:54;96292.39;;;27.02;43.16
74334;BME280;62753;40.394;-80.022;2023-06-26T11:18:19;96295.92;;;27.06;42.62
74334;BME280;62753;40.394;-80.022;2023-06-26T11:20:44;96294.36;;;27.45;41.45
74334;BME280;62753;40.394;-80.022;2023-06-26T11:23:10;96290.39;;;26.61;43.22
74334;BME280;62753;40.394;-80.022;2023-06-26T11:25:36;96294.98;;;26.87;42.65
74334;BME280;62753;40.394;-80.022;2023-06-26T11:28:00;96297.57;;;27.13;42.14
74334;BME280;62753;40.394;-80.022;2023-06-26T11:30:26;96296.76;;;27.14;41.48
74334;BME280;62753;40.394;-80.022;2023-06-26T11:32:51;96297.49;;;27.79;40.52
74334;BME280;62753;40.394;-80.022;2023-06-26T11:35:22;96294.48;;;27.86;39.97
74334;BME280;62753;40.394;-80.022;2023-06-26T11:37:42;96306.36;;;26.58;41.49
74334;BME280;62753;40.394;-80.022;2023-06-26T11:40:17;96313.75;;;27.41;40.91
74334;BME280;62753;40.394;-80.022;2023-06-26T11:42:33;96309.67;;;27.39;41.59
74334;BME280;62753;40.394;-80.022;2023-06-26T11:45:01;96304.58;;;28.06;39.37
74334;BME280;62753;40.394;-80.022;2023-06-26T11:47:24;96306.18;;;28.48;38.51
74334;BME280;62753;40.394;-80.022;2023-06-26T11:49:50;96307.19;;;28.50;38.19
74334;BME280;62753;40.394;-80.022;2023-06-26T11:52:15;96305.58;;;28.78;38.22
74334;BME280;62753;40.394;-80.022;2023-06-26T11:54:41;96310.79;;;30.01;36.15
74334;BME280;62753;40.394;-80.022;2023-06-26T11:57:06;96313.48;;;29.97;35.82
74334;BME280;62753;40.394;-80.022;2023-06-26T11:59:34;96314.03;;;29.49;35.48
74334;BME280;62753;40.394;-80.022;2023-06-26T12:01:57;96315.54;;;29.46;35.91
74334;BME280;62753;40.394;-80.022;2023-06-26T12:04:22;96308.69;;;28.99;36.41
74334;BME280;62753;40.394;-80.022;2023-06-26T12:06:52;96309.86;;;29.77;35.42
74334;BME280;62753;40.394;-80.022;2023-06-26T12:09:13;96312.61;;;28.38;36.54
74334;BME280;62753;40.394;-80.022;2023-06-26T12:11:41;96312.47;;;29.28;35.19
74334;BME280;62753;40.394;-80.022;2023-06-26T12:14:05;96313.09;;;28.20;36.98
74334;BME280;62753;40.394;-80.022;2023-06-26T12:16:30;96318.08;;;28.39;36.46
74334;BME280;62753;40.394;-80.022;2023-06-26T12:18:58;96316.64;;;28.71;35.79
74334;BME280;62753;40.394;-80.022;2023-06-26T12:21:33;96315.35;;;28.59;36.35
74334;BME280;62753;40.394;-80.022;2023-06-26T12:23:45;96314.24;;;28.56;34.65
74334;BME280;62753;40.394;-80.022;2023-06-26T12:26:18;96314.63;;;28.74;34.81
74334;BME280;62753;40.394;-80.022;2023-06-26T12:28:37;96309.08;;;29.13;35.29
74334;BME280;62753;40.394;-80.022;2023-06-26T12:31:14;96310.34;;;28.72;34.24
74334;BME280;62753;40.394;-80.022;2023-06-26T12:33:26;96309.52;;;29.03;34.21
74334;BME280;62753;40.394;-80.022;2023-06-26T12:35:51;96302.97;;;28.53;34.05